Time;durP1;ratioP1;P1;durP2;ratioP2;P2;SDS_P1;SDS_P2;PMS_P1;PMS_P2;Temp;Humidity;BMP_temperature;BMP_pressure;BME280_temperature;BME280_humidity;BME280_pressure;Samples;Min_cycle;Max_cycle;Signal;HPM_P1;HPM_P2
2023/01/27 00:00:29;;;;;;;13.93;7.50;;;;;;;;;;10463826;28;20063;-72
2023/01/27 00:05:29;;;;;;;11.27;6.50;;;;;;;;;;10466523;28;20481;-76
2023/01/27 00:10:30;;;;;;;9.90;6.28;;;;;;;;;;10466165;28;20453;-70
2023/01/27 00:15:31;;;;;;;13.70;6.73;;;;;;;;;;10484582;28;20168;-75
2023/01/27 00:25:57;;;;;;;12.93;6.95;;;;;;;;;;10489128;28;20040;-76
2023/01/27 00:30:58;;;;;;;10.52;5.63;;;;;;;;;;10466057;28;20091;-74
2023/01/27 00:35:59;;;;;;;13.07;6.53;;;;;;;;;;10466214;28;20020;-73
2023/01/27 00:41:18;;;;;;;15.68;6.85;;;;;;;;;;10486316;28;20028;-74
2023/01/27 00:46:19;;;;;;;12.98;6.80;;;;;;;;;;10465141;28;20067;-76
2023/01/27 00:51:20;;;;;;;15.13;7.07;;;;;;;;;;10464647;28;20020;-74
2023/01/27 00:56:20;;;;;;;11.48;7.10;;;;;;;;;;10464899;28;20432;-75
2023/01/27 01:01:20;;;;;;;11.67;7.90;;;;;;;;;;10482932;28;20028;-76
2023/01/27 01:06:21;;;;;;;15.32;8.25;;;;;;;;;;10464137;28;20024;-75
2023/01/27 01:11:22;;;;;;;14.47;9.00;;;;;;;;;;10464604;28;20052;-71
2023/01/27 01:16:23;;;;;;;11.20;6.90;;;;;;;;;;10464407;28;20020;-76
2023/01/27 01:21:23;;;;;;;16.73;8.80;;;;;;;;;;10463703;28;20477;-73
2023/01/27 01:26:23;;;;;;;12.82;7.65;;;;;;;;;;10482391;28;20031;-75
2023/01/27 01:31:24;;;;;;;14.68;8.32;;;;;;;;;;10461365;28;20025;-74
2023/01/27 01:36:24;;;;;;;11.55;7.15;;;;;;;;;;10459136;28;20070;-73
2023/01/27 01:41:24;;;;;;;13.32;8.07;;;;;;;;;;10461744;28;20025;-75
2023/01/27 01:46:25;;;;;;;13.45;7.78;;;;;;;;;;10478445;28;20032;-75
2023/01/27 01:51:38;;;;;;;17.33;8.50;;;;;;;;;;10463601;28;20947;-77
2023/01/27 01:56:39;;;;;;;19.23;11.18;;;;;;;;;;10460314;28;20028;-75
2023/01/27 02:01:39;;;;;;;19.58;10.68;;;;;;;;;;10459423;28;20024;-70
2023/01/27 02:06:42;;;;;;;19.05;10.43;;;;;;;;;;10464881;28;20062;-77
2023/01/27 02:11:42;;;;;;;19.77;10.35;;;;;;;;;;10470778;28;20339;-78
2023/01/27 02:16:43;;;;;;;16.17;10.27;;;;;;;;;;10470451;28;20402;-78
2023/01/27 02:21:43;;;;;;;20.58;11.10;;;;;;;;;;10469964;28;20024;-76
2023/01/27 02:26:44;;;;;;;26.88;14.25;;;;;;;;;;10470528;28;20028;-75
2023/01/27 02:31:44;;;;;;;25.23;14.43;;;;;;;;;;10453612;28;20024;-74
2023/01/27 02:36:47;;;;;;;26.43;15.87;;;;;;;;;;10467668;28;20079;-76
2023/01/27 02:41:49;;;;;;;29.50;15.63;;;;;;;;;;10470123;28;20147;-78
2023/01/27 02:46:49;;;;;;;35.70;16.98;;;;;;;;;;10469421;28;20067;-76
2023/01/27 02:51:49;;;;;;;35.35;17.27;;;;;;;;;;10469771;28;20028;-76
2023/01/27 02:56:50;;;;;;;29.80;15.52;;;;;;;;;;10469800;28;20038;-74
2023/01/27 03:01:51;;;;;;;25.52;13.20;;;;;;;;;;10466172;28;20028;-70
2023/01/27 03:06:51;;;;;;;29.13;15.57;;;;;;;;;;10466682;28;20020;-75
2023/01/27 03:22:29;;;;;;;32.60;18.48;;;;;;;;;;10482577;28;20028;-70
2023/01/27 03:27:30;;;;;;;30.77;15.77;;;;;;;;;;10468569;28;20012;-74
2023/01/27 03:32:30;;;;;;;27.52;15.43;;;;;;;;;;10465522;28;20634;-71
2023/01/27 03:48:11;;;;;;;41.47;20.92;;;;;;;;;;10485294;28;20020;-73
2023/01/27 03:53:11;;;;;;;40.88;19.83;;;;;;;;;;10464438;28;20012;-74
2023/01/27 03:58:22;;;;;;;36.92;16.17;;;;;;;;;;10466469;28;20020;-74
2023/01/27 04:08:43;;;;;;;39.47;19.17;;;;;;;;;;10481343;28;20028;-76
2023/01/27 04:13:43;;;;;;;35.85;18.05;;;;;;;;;;10466737;28;20020;-75
2023/01/27 04:18:45;;;;;;;35.35;18.42;;;;;;;;;;10467296;28;20115;-75
2023/01/27 04:23:45;;;;;;;34.03;19.25;;;;;;;;;;10442464;28;20020;-73
2023/01/27 04:28:46;;;;;;;35.13;18.20;;;;;;;;;;10465810;28;20025;-76
2023/01/27 04:33:46;;;;;;;38.03;18.05;;;;;;;;;;10477311;28;20040;-71
2023/01/27 04:38:47;;;;;;;34.05;17.48;;;;;;;;;;10471849;28;20028;-73
2023/01/27 04:43:47;;;;;;;36.00;16.23;;;;;;;;;;10481067;28;20039;-75
2023/01/27 04:48:48;;;;;;;30.88;15.35;;;;;;;;;;10462081;28;20027;-76
2023/01/27 04:53:48;;;;;;;37.10;16.00;;;;;;;;;;10463111;28;20046;-71
2023/01/27 04:58:48;;;;;;;32.28;15.63;;;;;;;;;;10461238;28;20019;-76
2023/01/27 05:03:49;;;;;;;28.58;13.95;;;;;;;;;;10460082;28;20052;-77
2023/01/27 05:08:49;;;;;;;30.80;14.67;;;;;;;;;;10465758;28;20099;-77
2023/01/27 05:13:49;;;;;;;30.45;14.80;;;;;;;;;;10483446;28;20028;-77
2023/01/27 05:18:51;;;;;;;31.27;14.33;;;;;;;;;;10440124;28;20025;-75
2023/01/27 05:23:51;;;;;;;28.38;13.35;;;;;;;;;;10463502;28;20595;-76
2023/01/27 05:28:52;;;;;;;23.73;13.00;;;;;;;;;;10442830;28;20021;-72
2023/01/27 05:33:53;;;;;;;23.10;11.32;;;;;;;;;;10465218;28;20116;-73
2023/01/27 05:38:54;;;;;;;23.65;12.02;;;;;;;;;;10451035;28;20017;-71
2023/01/27 05:43:54;;;;;;;28.63;11.40;;;;;;;;;;10465918;28;20044;-72
2023/01/27 05:48:56;;;;;;;24.95;11.95;;;;;;;;;;10471549;28;20506;-73
2023/01/27 05:53:56;;;;;;;17.65;10.40;;;;;;;;;;10459789;28;20159;-73
2023/01/27 05:58:57;;;;;;;25.63;11.30;;;;;;;;;;10485052;28;20034;-76
2023/01/27 06:03:57;;;;;;;21.13;11.60;;;;;;;;;;10476190;28;20036;-72
2023/01/27 06:08:58;;;;;;;22.45;14.38;;;;;;;;;;10465378;28;20020;-72
2023/01/27 06:13:58;;;;;;;32.97;16.13;;;;;;;;;;10463590;28;20094;-71
2023/01/27 06:18:58;;;;;;;31.58;16.60;;;;;;;;;;10449620;28;20021;-72
2023/01/27 06:23:59;;;;;;;30.90;16.37;;;;;;;;;;10488797;28;20483;-73
2023/01/27 06:28:59;;;;;;;33.85;17.52;;;;;;;;;;10477210;28;20033;-72
2023/01/27 06:33:59;;;;;;;116.13;19.17;;;;;;;;;;10481837;28;20107;-71
2023/01/27 06:39:00;;;;;;;24.05;13.02;;;;;;;;;;10488586;28;20504;-75
2023/01/27 06:44:00;;;;;;;23.23;12.13;;;;;;;;;;10470192;28;20857;-72
2023/01/27 06:49:00;;;;;;;25.13;13.27;;;;;;;;;;10465965;28;20410;-75
2023/01/27 06:54:00;;;;;;;27.67;13.65;;;;;;;;;;10470471;28;20398;-72
2023/01/27 06:59:01;;;;;;;23.02;11.95;;;;;;;;;;10470228;28;20379;-71
2023/01/27 07:04:01;;;;;;;24.10;13.70;;;;;;;;;;10469863;28;20378;-76
2023/01/27 07:09:01;;;;;;;23.85;12.95;;;;;;;;;;10469913;28;20436;-72
2023/01/27 07:14:02;;;;;;;18.05;10.75;;;;;;;;;;10469654;28;20059;-71
2023/01/27 07:19:02;;;;;;;19.55;9.80;;;;;;;;;;10466642;28;20028;-71
2023/01/27 07:24:03;;;;;;;24.83;11.10;;;;;;;;;;10461201;28;20035;-73
2023/01/27 07:29:03;;;;;;;28.52;12.35;;;;;;;;;;10468725;28;20044;-72
2023/01/27 07:34:03;;;;;;;27.88;15.00;;;;;;;;;;10469491;28;20020;-71
2023/01/27 07:39:04;;;;;;;25.00;13.98;;;;;;;;;;10467947;28;20036;-72
2023/01/27 07:44:04;;;;;;;26.07;13.73;;;;;;;;;;10467647;28;20040;-72
2023/01/27 07:49:04;;;;;;;26.07;14.17;;;;;;;;;;10467544;28;20032;-72
2023/01/27 07:54:05;;;;;;;20.50;11.77;;;;;;;;;;10485228;28;20501;-76
2023/01/27 07:59:05;;;;;;;26.33;13.32;;;;;;;;;;10467742;28;20490;-72
2023/01/27 08:04:06;;;;;;;27.50;13.82;;;;;;;;;;10453129;28;20036;-73
2023/01/27 08:09:06;;;;;;;31.90;12.85;;;;;;;;;;10463873;28;20016;-76
2023/01/27 08:14:06;;;;;;;32.58;17.92;;;;;;;;;;10485028;28;20024;-75
2023/01/27 08:19:07;;;;;;;27.55;13.52;;;;;;;;;;10467065;28;20040;-75
2023/01/27 08:24:09;;;;;;;22.88;11.07;;;;;;;;;;10484868;28;20112;-73
2023/01/27 08:29:09;;;;;;;16.95;10.93;;;;;;;;;;10450444;28;20131;-71
2023/01/27 08:34:10;;;;;;;16.50;9.95;;;;;;;;;;10466566;28;20024;-74
2023/01/27 08:39:11;;;;;;;18.02;10.02;;;;;;;;;;10466880;28;20055;-72
2023/01/27 08:44:12;;;;;;;14.97;9.13;;;;;;;;;;10465589;28;20055;-71
2023/01/27 08:49:13;;;;;;;18.58;10.80;;;;;;;;;;10466275;28;20033;-75
2023/01/27 08:54:13;;;;;;;22.15;9.98;;;;;;;;;;10484088;28;20135;-72
2023/01/27 08:59:13;;;;;;;26.35;9.63;;;;;;;;;;10470660;28;20059;-76
2023/01/27 09:04:13;;;;;;;21.27;10.67;;;;;;;;;;10465801;28;20024;-72
2023/01/27 09:09:14;;;;;;;17.20;9.30;;;;;;;;;;10465356;28;20032;-71
2023/01/27 09:14:14;;;;;;;18.63;9.23;;;;;;;;;;10464880;28;20017;-75
2023/01/27 09:19:14;;;;;;;16.70;9.47;;;;;;;;;;10465115;28;20082;-74
2023/01/27 09:24:16;;;;;;;20.17;11.10;;;;;;;;;;10465561;28;20076;-72
2023/01/27 09:29:17;;;;;;;15.40;8.73;;;;;;;;;;10464754;28;20476;-73
2023/01/27 09:34:18;;;;;;;12.00;8.23;;;;;;;;;;10464611;28;20035;-72
2023/01/27 09:39:19;;;;;;;14.02;9.63;;;;;;;;;;10465379;28;20032;-71
2023/01/27 09:44:19;;;;;;;25.38;10.85;;;;;;;;;;10463772;28;20253;-72
2023/01/27 09:49:36;;;;;;;26.00;12.57;;;;;;;;;;10464161;28;20435;-75
2023/01/27 09:54:54;;;;;;;26.25;11.40;;;;;;;;;;10474220;28;20029;-71
2023/01/27 09:59:57;;;;;;;29.70;11.43;;;;;;;;;;10471925;28;20024;-76
2023/01/27 10:04:57;;;;;;;18.27;10.32;;;;;;;;;;10464196;28;20457;-72
2023/01/27 10:10:04;;;;;;;21.92;11.63;;;;;;;;;;10450144;28;20021;-72
2023/01/27 10:15:13;;;;;;;25.13;13.38;;;;;;;;;;10453645;28;20074;-75
2023/01/27 10:20:27;;;;;;;24.15;13.15;;;;;;;;;;10469140;28;20490;-78
2023/01/27 10:25:43;;;;;;;22.88;12.90;;;;;;;;;;10481718;28;20051;-72
2023/01/27 10:30:46;;;;;;;21.30;12.52;;;;;;;;;;10467110;28;20027;-71
2023/01/27 10:36:05;;;;;;;19.88;11.48;;;;;;;;;;10470651;28;20469;-76
2023/01/27 10:41:05;;;;;;;;;;;;;;;;;;10489054;28;20021;-77
2023/01/27 10:46:05;;;;;;;21.73;8.98;;;;;;;;;;10487294;28;19942;-75
2023/01/27 10:51:24;;;;;;;16.35;9.82;;;;;;;;;;10458198;28;20036;-72
2023/01/27 10:56:27;;;;;;;17.88;10.65;;;;;;;;;;10431192;28;20065;-75
2023/01/27 11:01:33;;;;;;;23.20;13.35;;;;;;;;;;10470425;28;20028;-78
2023/01/27 11:06:39;;;;;;;21.77;12.52;;;;;;;;;;10470295;28;20021;-75
2023/01/27 11:11:43;;;;;;;23.98;14.13;;;;;;;;;;10468961;28;20032;-71
2023/01/27 11:16:48;;;;;;;19.52;12.77;;;;;;;;;;10437676;28;20090;-71
2023/01/27 11:21:50;;;;;;;16.88;12.40;;;;;;;;;;10469237;28;20028;-72
2023/01/27 11:26:55;;;;;;;18.00;11.15;;;;;;;;;;10486871;28;20456;-71
2023/01/27 11:32:09;;;;;;;24.67;11.45;;;;;;;;;;10469279;28;20410;-72
2023/01/27 11:37:13;;;;;;;22.30;10.90;;;;;;;;;;10444089;28;20501;-74
2023/01/27 11:42:14;;;;;;;14.93;10.70;;;;;;;;;;10469608;28;20032;-76
2023/01/27 11:47:20;;;;;;;15.82;11.30;;;;;;;;;;10435733;28;20052;-71
2023/01/27 11:52:25;;;;;;;18.83;12.93;;;;;;;;;;10445716;28;20057;-74
2023/01/27 11:57:27;;;;;;;16.20;10.13;;;;;;;;;;10443846;28;20404;-79
2023/01/27 12:02:53;;;;;;;18.92;12.30;;;;;;;;;;10444717;28;20017;-72
2023/01/27 12:07:55;;;;;;;19.60;12.10;;;;;;;;;;10434336;28;20044;-74
2023/01/27 12:12:57;;;;;;;18.85;11.18;;;;;;;;;;10443268;28;20135;-77
2023/01/27 12:18:14;;;;;;;20.08;13.52;;;;;;;;;;10442030;28;20039;-72
2023/01/27 12:23:15;;;;;;;21.65;10.65;;;;;;;;;;10441808;28;20024;-72
2023/01/27 12:28:36;;;;;;;22.13;11.05;;;;;;;;;;10425642;28;20012;-72
2023/01/27 12:33:38;;;;;;;24.25;13.20;;;;;;;;;;10441707;28;20025;-73
2023/01/27 12:38:43;;;;;;;20.10;12.30;;;;;;;;;;10441228;28;20529;-71
2023/01/27 12:43:54;;;;;;;17.20;10.02;;;;;;;;;;10449329;28;20037;-73
2023/01/27 12:49:09;;;;;;;17.90;10.68;;;;;;;;;;10465975;28;20442;-72
2023/01/27 12:54:18;;;;;;;16.35;10.07;;;;;;;;;;10461347;28;20020;-75
2023/01/27 12:59:20;;;;;;;17.88;10.57;;;;;;;;;;10448068;28;20028;-74
2023/01/27 13:04:21;;;;;;;15.45;10.80;;;;;;;;;;10465771;28;20058;-76
2023/01/27 13:09:25;;;;;;;19.13;11.07;;;;;;;;;;10465626;28;20522;-73
2023/01/27 13:14:31;;;;;;;18.52;11.25;;;;;;;;;;10464919;28;20031;-70
2023/01/27 13:19:34;;;;;;;25.45;12.45;;;;;;;;;;10461655;28;20028;-77
2023/01/27 13:24:39;;;;;;;19.02;11.02;;;;;;;;;;10478459;28;20030;-71
2023/01/27 13:29:40;;;;;;;18.73;11.93;;;;;;;;;;10460188;28;20362;-71
2023/01/27 13:34:47;;;;;;;21.17;14.27;;;;;;;;;;10463542;28;20073;-78
2023/01/27 13:39:53;;;;;;;17.15;11.77;;;;;;;;;;10466698;28;20029;-75
2023/01/27 13:44:57;;;;;;;20.15;10.10;;;;;;;;;;10444428;28;20043;-75
2023/01/27 13:50:07;;;;;;;18.65;10.13;;;;;;;;;;10473238;28;20075;-71
2023/01/27 13:55:11;;;;;;;12.43;9.45;;;;;;;;;;10462483;28;20451;-73
2023/01/27 14:00:14;;;;;;;18.48;10.27;;;;;;;;;;10462213;28;20032;-70
2023/01/27 14:05:18;;;;;;;15.18;11.00;;;;;;;;;;10464847;28;20028;-71
2023/01/27 14:10:24;;;;;;;17.50;10.88;;;;;;;;;;10479793;28;20016;-72
2023/01/27 14:15:28;;;;;;;18.45;11.82;;;;;;;;;;10470250;28;20030;-71
2023/01/27 14:20:29;;;;;;;17.30;11.07;;;;;;;;;;10469349;28;20056;-71
2023/01/27 14:26:04;;;;;;;18.48;11.45;;;;;;;;;;10487591;28;20029;-78
2023/01/27 14:31:13;;;;;;;18.30;11.60;;;;;;;;;;10385965;28;20028;-73
2023/01/27 14:36:33;;;;;;;13.27;10.23;;;;;;;;;;10468888;28;20030;-71
2023/01/27 14:41:43;;;;;;;18.10;11.07;;;;;;;;;;10467474;28;20032;-70
2023/01/27 14:46:45;;;;;;;15.18;11.43;;;;;;;;;;10485398;28;20049;-71
2023/01/27 14:52:04;;;;;;;15.40;11.30;;;;;;;;;;10473404;28;20119;-76
2023/01/27 14:57:23;;;;;;;17.00;11.75;;;;;;;;;;10484662;28;20074;-76
2023/01/27 15:02:37;;;;;;;16.95;11.00;;;;;;;;;;10454111;28;20025;-69
2023/01/27 15:07:44;;;;;;;22.52;11.30;;;;;;;;;;10498643;28;20033;-75
2023/01/27 15:13:03;;;;;;;17.05;10.10;;;;;;;;;;10467399;28;20050;-75
2023/01/27 15:18:22;;;;;;;14.73;9.30;;;;;;;;;;10466341;28;20558;-75
2023/01/27 15:23:34;;;;;;;21.35;13.05;;;;;;;;;;10465819;28;20059;-79
2023/01/27 15:28:37;;;;;;;17.60;10.77;;;;;;;;;;10462553;28;20078;-74
2023/01/27 15:33:51;;;;;;;21.95;12.65;;;;;;;;;;10466141;28;20137;-71
2023/01/27 15:38:59;;;;;;;23.75;13.32;;;;;;;;;;10466429;28;20504;-72
2023/01/27 15:44:18;;;;;;;23.77;12.98;;;;;;;;;;10465863;28;20071;-74
2023/01/27 15:49:27;;;;;;;17.13;10.70;;;;;;;;;;10453510;28;20035;-69
2023/01/27 15:54:30;;;;;;;16.88;10.23;;;;;;;;;;10459777;28;20117;-72
2023/01/27 15:59:40;;;;;;;19.05;10.68;;;;;;;;;;10465149;28;20028;-71
2023/01/27 16:04:40;;;;;;;21.15;10.75;;;;;;;;;;10481539;28;20064;-75
2023/01/27 16:09:41;;;;;;;15.98;9.45;;;;;;;;;;10464563;28;20140;-70
2023/01/27 16:14:43;;;;;;;14.98;9.25;;;;;;;;;;10469797;28;20496;-74
2023/01/27 16:19:51;;;;;;;18.13;10.50;;;;;;;;;;10480724;28;20048;-70
2023/01/27 16:25:17;;;;;;;17.75;10.05;;;;;;;;;;10473465;28;20021;-71
2023/01/27 16:30:19;;;;;;;17.13;11.40;;;;;;;;;;10463281;28;20111;-73
2023/01/27 16:35:20;;;;;;;16.80;11.23;;;;;;;;;;10463675;28;20035;-75
2023/01/27 16:40:21;;;;;;;17.63;11.02;;;;;;;;;;10461633;28;20414;-72
2023/01/27 16:45:32;;;;;;;14.82;9.50;;;;;;;;;;10471322;28;20039;-70
2023/01/27 16:50:37;;;;;;;15.23;8.82;;;;;;;;;;10447596;28;20020;-74
2023/01/27 16:55:38;;;;;;;17.63;10.48;;;;;;;;;;10463098;28;20024;-71
2023/01/27 17:00:39;;;;;;;17.80;11.40;;;;;;;;;;10460487;28;20025;-76
2023/01/27 17:05:40;;;;;;;14.70;9.68;;;;;;;;;;10460266;28;20502;-77
2023/01/27 17:10:42;;;;;;;15.30;9.52;;;;;;;;;;10463452;28;20024;-71
2023/01/27 17:15:43;;;;;;;19.98;12.93;;;;;;;;;;10481624;28;20478;-74
2023/01/27 17:20:45;;;;;;;16.67;9.07;;;;;;;;;;10461810;28;20022;-74
2023/01/27 17:25:46;;;;;;;15.15;9.65;;;;;;;;;;10463373;28;20028;-71
2023/01/27 17:30:46;;;;;;;17.17;10.77;;;;;;;;;;10466142;28;20456;-73
2023/01/27 17:35:51;;;;;;;14.15;9.55;;;;;;;;;;10462634;28;20474;-74
2023/01/27 17:40:52;;;;;;;16.20;8.90;;;;;;;;;;10481997;28;20111;-76
2023/01/27 17:46:13;;;;;;;17.90;10.02;;;;;;;;;;10473081;28;20532;-73
2023/01/27 17:51:17;;;;;;;15.07;9.30;;;;;;;;;;10452728;28;20020;-73
2023/01/27 17:56:20;;;;;;;17.40;10.35;;;;;;;;;;10462393;28;20497;-78
2023/01/27 18:01:20;;;;;;;18.17;10.80;;;;;;;;;;10472908;28;20543;-75
2023/01/27 18:06:23;;;;;;;15.95;9.82;;;;;;;;;;10467743;28;20024;-70
2023/01/27 18:11:29;;;;;;;17.08;10.50;;;;;;;;;;10462254;28;20024;-75
2023/01/27 18:16:30;;;;;;;15.65;9.90;;;;;;;;;;10447437;28;20469;-73
2023/01/27 18:21:30;;;;;;;17.58;10.10;;;;;;;;;;10461071;28;20027;-74
2023/01/27 18:26:32;;;;;;;18.25;9.30;;;;;;;;;;10458566;28;20429;-75
2023/01/27 18:31:42;;;;;;;21.35;9.68;;;;;;;;;;10474305;28;20019;-72
2023/01/27 18:36:57;;;;;;;12.73;9.07;;;;;;;;;;10458997;28;20121;-69
2023/01/27 18:41:57;;;;;;;16.02;8.85;;;;;;;;;;10482524;28;20044;-70
2023/01/27 18:47:07;;;;;;;16.70;9.07;;;;;;;;;;10464381;28;20037;-73
2023/01/27 18:52:12;;;;;;;16.05;9.82;;;;;;;;;;10464707;28;20024;-74
2023/01/27 18:57:13;;;;;;;12.63;8.00;;;;;;;;;;10458027;28;20494;-74
2023/01/27 19:02:14;;;;;;;18.00;8.20;;;;;;;;;;10466275;28;20124;-73
2023/01/27 19:07:16;;;;;;;15.32;8.63;;;;;;;;;;10459087;28;20048;-71
2023/01/27 19:12:16;;;;;;;11.88;8.15;;;;;;;;;;10469060;28;20020;-71
2023/01/27 19:17:21;;;;;;;18.73;8.93;;;;;;;;;;10482448;28;20029;-73
2023/01/27 19:22:22;;;;;;;15.48;8.35;;;;;;;;;;10470946;28;20028;-72
2023/01/27 19:27:22;;;;;;;16.05;10.07;;;;;;;;;;10460278;28;20334;-74
2023/01/27 19:32:22;;;;;;;13.85;10.02;;;;;;;;;;10480114;28;20020;-69
2023/01/27 19:37:23;;;;;;;19.13;10.57;;;;;;;;;;10459431;28;20037;-73
2023/01/27 19:42:23;;;;;;;12.67;8.87;;;;;;;;;;10462567;28;20029;-71
2023/01/27 19:47:23;;;;;;;13.35;9.13;;;;;;;;;;10465500;28;20310;-69
2023/01/27 19:52:23;;;;;;;12.93;8.57;;;;;;;;;;10463287;28;20107;-72
2023/01/27 19:57:24;;;;;;;10.30;7.75;;;;;;;;;;10485498;28;20036;-71
2023/01/27 20:02:24;;;;;;;13.10;8.38;;;;;;;;;;10463290;28;20060;-71
2023/01/27 20:07:25;;;;;;;12.95;7.93;;;;;;;;;;10463088;28;20063;-75
2023/01/27 20:12:25;;;;;;;12.32;7.85;;;;;;;;;;10463111;28;20090;-72
2023/01/27 20:17:25;;;;;;;11.40;8.50;;;;;;;;;;10463191;28;20032;-72
2023/01/27 20:22:26;;;;;;;14.63;8.30;;;;;;;;;;10461545;28;20031;-71
2023/01/27 20:27:26;;;;;;;12.73;8.32;;;;;;;;;;10455149;28;20032;-72
2023/01/27 20:32:26;;;;;;;12.07;7.70;;;;;;;;;;10480073;28;20056;-73
2023/01/27 20:37:26;;;;;;;20.25;11.00;;;;;;;;;;10463284;28;20036;-74
2023/01/27 20:42:28;;;;;;;14.00;8.30;;;;;;;;;;10461528;28;20416;-72
2023/01/27 20:47:28;;;;;;;11.10;7.72;;;;;;;;;;10474257;28;20056;-76
2023/01/27 20:52:28;;;;;;;10.45;7.38;;;;;;;;;;10461137;28;20028;-71
2023/01/27 20:57:30;;;;;;;14.05;8.45;;;;;;;;;;10457147;28;20031;-71
2023/01/27 21:02:30;;;;;;;12.98;9.13;;;;;;;;;;10473227;28;20029;-72
2023/01/27 21:07:30;;;;;;;10.77;7.77;;;;;;;;;;10461429;28;20555;-68
2023/01/27 21:12:30;;;;;;;12.88;9.32;;;;;;;;;;10459452;28;20491;-74
2023/01/27 21:17:31;;;;;;;11.00;7.30;;;;;;;;;;10449959;28;20480;-72
2023/01/27 21:22:33;;;;;;;10.93;8.32;;;;;;;;;;10461152;28;20129;-70
2023/01/27 21:27:33;;;;;;;15.50;8.82;;;;;;;;;;10440985;28;20048;-73
2023/01/27 21:32:33;;;;;;;14.82;9.30;;;;;;;;;;10457699;28;20031;-72
2023/01/27 21:37:35;;;;;;;15.80;10.25;;;;;;;;;;10463434;28;20105;-72
2023/01/27 21:47:54;;;;;;;15.10;9.02;;;;;;;;;;10479693;28;20040;-74
2023/01/27 21:52:54;;;;;;;12.95;8.15;;;;;;;;;;10460513;28;20025;-71
2023/01/27 21:57:55;;;;;;;13.35;9.20;;;;;;;;;;10462078;28;20547;-74
2023/01/27 22:02:57;;;;;;;13.07;8.07;;;;;;;;;;10443070;28;20039;-73
2023/01/27 22:07:57;;;;;;;16.02;10.25;;;;;;;;;;10457711;28;20012;-73
2023/01/27 22:12:58;;;;;;;14.55;8.95;;;;;;;;;;10479990;28;20021;-72
2023/01/27 22:17:59;;;;;;;15.10;8.35;;;;;;;;;;10445128;28;20036;-69
2023/01/27 22:22:59;;;;;;;13.82;8.27;;;;;;;;;;10464217;28;20029;-69
2023/01/27 22:27:59;;;;;;;17.77;9.60;;;;;;;;;;10460654;28;20028;-70
2023/01/27 22:33:00;;;;;;;13.65;8.90;;;;;;;;;;10468868;28;20016;-74
2023/01/27 22:38:01;;;;;;;15.68;9.10;;;;;;;;;;10455628;28;20028;-70
2023/01/27 22:43:08;;;;;;;11.88;9.00;;;;;;;;;;10447770;28;20038;-73
2023/01/27 22:48:08;;;;;;;15.40;8.57;;;;;;;;;;10464232;28;20077;-77
2023/01/27 22:53:09;;;;;;;11.75;7.90;;;;;;;;;;10470431;28;20017;-71
2023/01/27 22:58:10;;;;;;;13.73;9.35;;;;;;;;;;10475061;28;20052;-73
2023/01/27 23:03:10;;;;;;;12.53;8.30;;;;;;;;;;10475361;28;20115;-68
2023/01/27 23:08:10;;;;;;;18.03;9.60;;;;;;;;;;10475338;28;20028;-71
2023/01/27 23:13:11;;;;;;;16.73;9.83;;;;;;;;;;10470418;28;20719;-75
2023/01/27 23:18:11;;;;;;;14.98;9.20;;;;;;;;;;10470071;28;20044;-71
2023/01/27 23:23:13;;;;;;;15.00;9.23;;;;;;;;;;10469841;28;20020;-76
2023/01/27 23:28:14;;;;;;;11.30;7.53;;;;;;;;;;10469494;23;20050;-73
2023/01/27 23:33:16;;;;;;;13.90;10.23;;;;;;;;;;10539628;28;20068;-74
2023/01/27 23:38:16;;;;;;;15.30;9.32;;;;;;;;;;10527596;28;20056;-69
2023/01/27 23:43:16;;;;;;;11.90;8.23;;;;;;;;;;10510826;28;20031;-69
2023/01/27 23:48:17;;;;;;;15.13;9.40;;;;;;;;;;10510358;28;20016;-73
2023/01/27 23:53:19;;;;;;;11.32;8.00;;;;;;;;;;10510621;28;20106;-71
2023/01/27 23:58:19;;;;;;;13.05;8.68;;;;;;;;;;10504573;28;20563;-74
